Hovedside
METAR-TAF:

METAR-TAF

Lufthavner :

Bournemouth, England

breddegrad: 50-47N, lengdegrad: 001-50W, høyde over havet: 11 m

Gjeldene værobservasjon

Denne rapporten ble laget for 34 minutter siden, klokken 13:50 UTC
Vind 5 kt fra Øst
Temperatur 7°C
Luftfuktighet 87%
Trykk 1029 hPa
Sikt 10 km eller mer
Brutte skyer i en høyde av 1300 ft

METAR: EGHH 231350Z 08005KT 9999 BKN013 07/05 Q1029

Tid: 14:24 (14:24 UTC)

Varsel

Denne rapporten ble laget for 3 timer og 23 minutter siden, klokken 11:01 UTC
Varsel gyldig fra 23. klokken 12 UTC til 23. klokken 21 UTC
Vind 6 kt fra Øst-nordøst
Sikt 10 km eller mer
Brutte skyer i en høyde av 1200 ft
Blir
fra 23. klokken 12 UTC til 23. klokken 15 UTC
Spredte skyer i en høyde av 1500 ft
Midlertidig
fra 23. klokken 15 UTC til 23. klokken 21 UTC
Sikt: 8000 m
Brutte skyer i en høyde av 900 ft

TAF: EGHH 231101Z 2312/2321 07006KT 9999 BKN012 BECMG 2312/2315 SCT015 TEMPO 2315/2321 8000 BKN009

Værobservasjoner og værvarsel for over 4000 flyplasser (METAR- og TAF-rapporter).

Tilgjengelige stasjoner er representert av de røde og gule prikkene på kartet.

Hold musepekeren over prikken for å se navnet på stasjonen.

Klikk så for å se værobservasjoner og -varsler.

For å forandre kartet kan du klikke på den grønne knappen med svart kryss for å zoome inn, på den grønne knappen med strek for å zoome ut, eller på de grønne pilene for å se tilstøtende kart.


METAR-TAF: